sensor_id;sensor_type;location;lat;lon;timestamp;pressure;altitude;pressure_sealevel;temperature;humidity
38558;BME280;24333;42.626;23.308;2024-03-29T00:02:07;69902.44;;;-148.95;52.53
38558;BME280;24333;42.626;23.308;2024-03-29T00:04:34;69919.03;;;-148.95;53.13
38558;BME280;24333;42.626;23.308;2024-03-29T00:07:09;69906.59;;;-148.95;54.83
38558;BME280;24333;42.626;23.308;2024-03-29T00:09:35;69910.72;;;-148.95;54.39
38558;BME280;24333;42.626;23.308;2024-03-29T00:12:13;69931.47;;;-148.95;53.33
38558;BME280;24333;42.626;23.308;2024-03-29T00:14:38;69921.09;;;-148.95;54.63
38558;BME280;24333;42.626;23.308;2024-03-29T00:17:05;69937.69;;;-148.95;54.50
38558;BME280;24333;42.626;23.308;2024-03-29T00:19:32;69952.22;;;-148.95;55.03
38558;BME280;24333;42.626;23.308;2024-03-29T00:21:58;69972.97;;;-148.95;56.95
38558;BME280;24333;42.626;23.308;2024-03-29T00:24:23;69972.97;;;-148.95;56.69
38558;BME280;24333;42.626;23.308;2024-03-29T00:26:49;69985.41;;;-148.95;56.41
38558;BME280;24333;42.626;23.308;2024-03-29T00:29:15;69991.63;;;-148.95;56.89
38558;BME280;24333;42.626;23.308;2024-03-29T00:31:40;69977.13;;;-148.95;56.71
38558;BME280;24333;42.626;23.308;2024-03-29T00:34:06;69981.25;;;-148.95;57.84
38558;BME280;24333;42.626;23.308;2024-03-29T00:46:52;70014.47;;;-148.95;61.55
38558;BME280;24333;42.626;23.308;2024-03-29T00:49:18;70028.97;;;-148.95;62.23
38558;BME280;24333;42.626;23.308;2024-03-29T00:51:43;70035.19;;;-148.95;63.23
38558;BME280;24333;42.626;23.308;2024-03-29T00:54:40;70047.66;;;-148.95;63.78
38558;BME280;24333;42.626;23.308;2024-03-29T00:59:54;70064.25;;;-148.95;63.51
38558;BME280;24333;42.626;23.308;2024-03-29T01:02:22;70074.63;;;-148.95;64.77
38558;BME280;24333;42.626;23.308;2024-03-29T01:04:47;70074.63;;;-148.95;64.09
38558;BME280;24333;42.626;23.308;2024-03-29T01:07:13;70085.00;;;-148.95;64.60
38558;BME280;24333;42.626;23.308;2024-03-29T01:09:46;70082.91;;;-148.95;66.00
38558;BME280;24333;42.626;23.308;2024-03-29T01:12:12;70091.22;;;-148.95;67.25
38558;BME280;24333;42.626;23.308;2024-03-29T01:14:37;70101.59;;;-148.95;68.08
38558;BME280;24333;42.626;23.308;2024-03-29T01:17:03;70105.75;;;-148.95;67.92
38558;BME280;24333;42.626;23.308;2024-03-29T01:19:28;70116.13;;;-148.95;66.95
38558;BME280;24333;42.626;23.308;2024-03-29T01:21:54;70111.97;;;-148.95;66.57
38558;BME280;24333;42.626;23.308;2024-03-29T01:24:19;70120.25;;;-148.95;66.08
38558;BME280;24333;42.626;23.308;2024-03-29T01:26:45;70111.97;;;-148.95;65.36
38558;BME280;24333;42.626;23.308;2024-03-29T01:29:10;70109.88;;;-148.95;66.79
38558;BME280;24333;42.626;23.308;2024-03-29T01:31:37;70109.88;;;-148.95;66.89
38558;BME280;24333;42.626;23.308;2024-03-29T01:34:07;70111.97;;;-148.95;67.22
38558;BME280;24333;42.626;23.308;2024-03-29T01:36:33;70118.19;;;-148.95;69.11
38558;BME280;24333;42.626;23.308;2024-03-29T01:38:59;70124.41;;;-148.95;70.13
38558;BME280;24333;42.626;23.308;2024-03-29T01:41:26;70124.41;;;-148.95;69.64
38558;BME280;24333;42.626;23.308;2024-03-29T01:43:54;70134.78;;;-148.95;70.35
38558;BME280;24333;42.626;23.308;2024-03-29T01:46:23;70138.94;;;-148.95;70.29
38558;BME280;24333;42.626;23.308;2024-03-29T01:48:53;70136.84;;;-148.95;69.58
38558;BME280;24333;42.626;23.308;2024-03-29T01:51:19;70149.31;;;-148.95;71.51
38558;BME280;24333;42.626;23.308;2024-03-29T01:53:58;70155.53;;;-148.95;70.53
38558;BME280;24333;42.626;23.308;2024-03-29T01:56:27;70167.97;;;-148.95;70.58
38558;BME280;24333;42.626;23.308;2024-03-29T01:59:03;70170.06;;;-148.95;70.79
38558;BME280;24333;42.626;23.308;2024-03-29T02:01:30;70184.56;;;-148.95;71.06
38558;BME280;24333;42.626;23.308;2024-03-29T02:03:59;70188.72;;;-148.95;71.08
38558;BME280;24333;42.626;23.308;2024-03-29T02:06:46;70201.16;;;-148.95;70.11
38558;BME280;24333;42.626;23.308;2024-03-29T02:09:12;70199.09;;;-148.95;70.56
38558;BME280;24333;42.626;23.308;2024-03-29T02:11:38;70209.47;;;-148.95;71.38
38558;BME280;24333;42.626;23.308;2024-03-29T02:14:03;70215.69;;;-148.95;68.63
38558;BME280;24333;42.626;23.308;2024-03-29T02:16:31;70224.00;;;-148.95;69.50
38558;BME280;24333;42.626;23.308;2024-03-29T02:18:57;70217.78;;;-148.95;68.55
38558;BME280;24333;42.626;23.308;2024-03-29T02:21:22;70221.91;;;-148.95;68.34
38558;BME280;24333;42.626;23.308;2024-03-29T02:24:00;70228.16;;;-148.95;70.30
38558;BME280;24333;42.626;23.308;2024-03-29T02:26:25;70236.44;;;-148.95;69.35
38558;BME280;24333;42.626;23.308;2024-03-29T02:28:56;70240.59;;;-148.95;69.45
38558;BME280;24333;42.626;23.308;2024-03-29T02:31:22;70253.03;;;-148.95;68.45
38558;BME280;24333;42.626;23.308;2024-03-29T02:33:47;70255.13;;;-148.95;67.87
38558;BME280;24333;42.626;23.308;2024-03-29T02:36:16;70248.88;;;-148.95;67.28
38558;BME280;24333;42.626;23.308;2024-03-29T02:38:42;70255.13;;;-148.95;68.28
38558;BME280;24333;42.626;23.308;2024-03-29T02:41:07;70265.47;;;-148.95;69.11
38558;BME280;24333;42.626;23.308;2024-03-29T02:43:33;70269.63;;;-148.95;70.27
38558;BME280;24333;42.626;23.308;2024-03-29T02:45:58;70273.78;;;-148.95;71.40
38558;BME280;24333;42.626;23.308;2024-03-29T03:38:54;70321.50;;;-148.95;73.93
38558;BME280;24333;42.626;23.308;2024-03-29T03:41:20;70323.56;;;-148.95;74.54
38558;BME280;24333;42.626;23.308;2024-03-29T03:43:46;70325.66;;;-148.95;73.99
38558;BME280;24333;42.626;23.308;2024-03-29T03:46:12;70336.03;;;-148.95;73.62
38558;BME280;24333;42.626;23.308;2024-03-29T03:48:37;70338.09;;;-148.95;73.96
38558;BME280;24333;42.626;23.308;2024-03-29T03:51:03;70350.53;;;-148.95;74.35
38558;BME280;24333;42.626;23.308;2024-03-29T03:53:28;70348.47;;;-148.95;74.86
38558;BME280;24333;42.626;23.308;2024-03-29T03:55:54;70354.69;;;-148.95;75.34
38558;BME280;24333;42.626;23.308;2024-03-29T03:58:20;70363.00;;;-148.95;75.24
38558;BME280;24333;42.626;23.308;2024-03-29T04:00:45;70367.16;;;-148.95;74.79
38558;BME280;24333;42.626;23.308;2024-03-29T04:03:11;70371.28;;;-148.95;73.98
38558;BME280;24333;42.626;23.308;2024-03-29T04:05:37;70375.44;;;-148.95;74.62
38558;BME280;24333;42.626;23.308;2024-03-29T04:08:03;70373.38;;;-148.95;74.82
38558;BME280;24333;42.626;23.308;2024-03-29T04:10:29;70379.59;;;-148.95;74.61
38558;BME280;24333;42.626;23.308;2024-03-29T04:12:55;70379.59;;;-148.95;74.89
38558;BME280;24333;42.626;23.308;2024-03-29T04:15:20;70383.75;;;-148.95;74.21
38558;BME280;24333;42.626;23.308;2024-03-29T04:17:46;70383.75;;;-148.95;75.07
38558;BME280;24333;42.626;23.308;2024-03-29T04:20:12;70383.75;;;-148.95;75.53
38558;BME280;24333;42.626;23.308;2024-03-29T04:22:38;70389.97;;;-148.95;75.67
38558;BME280;24333;42.626;23.308;2024-03-29T04:25:04;70389.97;;;-148.95;76.33
38558;BME280;24333;42.626;23.308;2024-03-29T04:27:30;70396.19;;;-148.95;76.55
38558;BME280;24333;42.626;23.308;2024-03-29T04:29:55;70398.28;;;-148.95;76.06
38558;BME280;24333;42.626;23.308;2024-03-29T04:32:21;70400.34;;;-148.95;73.58
38558;BME280;24333;42.626;23.308;2024-03-29T04:34:48;70396.19;;;-148.95;72.49
38558;BME280;24333;42.626;23.308;2024-03-29T04:37:14;70387.91;;;-148.95;72.68
38558;BME280;24333;42.626;23.308;2024-03-29T04:39:40;70379.59;;;-148.95;73.74
38558;BME280;24333;42.626;23.308;2024-03-29T04:42:05;70383.75;;;-148.95;73.65
38558;BME280;24333;42.626;23.308;2024-03-29T04:44:31;70381.66;;;-148.95;74.98
38558;BME280;24333;42.626;23.308;2024-03-29T04:46:57;70375.44;;;-148.95;76.00
38558;BME280;24333;42.626;23.308;2024-03-29T04:49:23;70385.81;;;-148.95;75.56
38558;BME280;24333;42.626;23.308;2024-03-29T04:51:58;70385.81;;;-148.95;74.53
38558;BME280;24333;42.626;23.308;2024-03-29T04:54:25;70373.38;;;-148.95;73.73
38558;BME280;24333;42.626;23.308;2024-03-29T04:56:50;70358.84;;;-148.95;73.43
38558;BME280;24333;42.626;23.308;2024-03-29T04:59:15;70350.53;;;-148.95;73.35
38558;BME280;24333;42.626;23.308;2024-03-29T05:48:36;70016.53;;;-148.95;46.39
38558;BME280;24333;42.626;23.308;2024-03-29T05:51:03;70012.38;;;-148.95;46.30
38558;BME280;24333;42.626;23.308;2024-03-29T05:53:29;69997.88;;;-148.95;46.62
38558;BME280;24333;42.626;23.308;2024-03-29T05:55:55;69985.41;;;-148.95;46.78
38558;BME280;24333;42.626;23.308;2024-03-29T05:58:20;69985.41;;;-148.95;45.07
38558;BME280;24333;42.626;23.308;2024-03-29T06:00:46;69970.91;;;-148.95;44.69
38558;BME280;24333;42.626;23.308;2024-03-29T06:03:12;69966.75;;;-148.95;44.67
38558;BME280;24333;42.626;23.308;2024-03-29T06:05:39;69958.44;;;-148.95;44.43
38558;BME280;24333;42.626;23.308;2024-03-29T06:11:05;69948.06;;;-148.95;44.54
38558;BME280;24333;42.626;23.308;2024-03-29T06:14:00;69941.84;;;-148.95;44.36
38558;BME280;24333;42.626;23.308;2024-03-29T06:19:26;69925.25;;;-148.95;44.28
38558;BME280;24333;42.626;23.308;2024-03-29T06:21:58;69919.03;;;-148.95;44.55
38558;BME280;24333;42.626;23.308;2024-03-29T06:24:43;69912.81;;;-148.95;43.47
38558;BME280;24333;42.626;23.308;2024-03-29T06:27:11;69916.97;;;-148.95;43.28
38558;BME280;24333;42.626;23.308;2024-03-29T06:29:50;69916.97;;;-148.95;42.86
38558;BME280;24333;42.626;23.308;2024-03-29T06:33:17;69904.50;;;-148.95;42.57
38558;BME280;24333;42.626;23.308;2024-03-29T06:35:52;69898.28;;;-148.95;43.27
38558;BME280;24333;42.626;23.308;2024-03-29T06:43:37;69885.84;;;-148.95;41.97
38558;BME280;24333;42.626;23.308;2024-03-29T06:46:03;69881.69;;;-148.95;42.12
38558;BME280;24333;42.626;23.308;2024-03-29T06:48:30;69869.25;;;-148.95;42.13
38558;BME280;24333;42.626;23.308;2024-03-29T06:50:57;69877.53;;;-148.95;41.34
38558;BME280;24333;42.626;23.308;2024-03-29T06:53:23;69873.41;;;-148.95;41.63
38558;BME280;24333;42.626;23.308;2024-03-29T06:55:49;69865.09;;;-148.95;41.08
38558;BME280;24333;42.626;23.308;2024-03-29T06:58:15;69860.94;;;-148.95;41.48
38558;BME280;24333;42.626;23.308;2024-03-29T07:00:43;69858.88;;;-148.95;41.62
38558;BME280;24333;42.626;23.308;2024-03-29T07:03:08;69856.81;;;-148.95;41.20
38558;BME280;24333;42.626;23.308;2024-03-29T07:05:34;69852.66;;;-148.95;41.12
38558;BME280;24333;42.626;23.308;2024-03-29T07:07:59;69856.81;;;-148.95;40.48
38558;BME280;24333;42.626;23.308;2024-03-29T07:10:26;69848.50;;;-148.95;40.53
38558;BME280;24333;42.626;23.308;2024-03-29T07:12:52;69852.66;;;-148.95;40.72
38558;BME280;24333;42.626;23.308;2024-03-29T07:15:17;69848.50;;;-148.95;40.46
38558;BME280;24333;42.626;23.308;2024-03-29T07:17:42;69852.66;;;-148.95;41.04
38558;BME280;24333;42.626;23.308;2024-03-29T07:20:09;69850.56;;;-148.95;41.76
38558;BME280;24333;42.626;23.308;2024-03-29T07:22:35;69844.34;;;-148.95;41.46
38558;BME280;24333;42.626;23.308;2024-03-29T07:25:00;69833.97;;;-148.95;41.07
38558;BME280;24333;42.626;23.308;2024-03-29T07:27:26;69827.75;;;-148.95;41.34
38558;BME280;24333;42.626;23.308;2024-03-29T07:29:53;69821.53;;;-148.95;40.92
38558;BME280;24333;42.626;23.308;2024-03-29T07:32:18;69802.88;;;-148.95;40.79
38558;BME280;24333;42.626;23.308;2024-03-29T07:34:50;69815.31;;;-148.95;40.28
38558;BME280;24333;42.626;23.308;2024-03-29T07:37:17;69807.00;;;-148.95;40.68
38558;BME280;24333;42.626;23.308;2024-03-29T07:39:43;69794.56;;;-148.95;40.86
38558;BME280;24333;42.626;23.308;2024-03-29T07:42:08;69792.50;;;-148.95;40.83
38558;BME280;24333;42.626;23.308;2024-03-29T07:44:34;69777.97;;;-148.95;40.43
38558;BME280;24333;42.626;23.308;2024-03-29T07:47:00;69769.69;;;-148.95;40.01
38558;BME280;24333;42.626;23.308;2024-03-29T07:49:25;69753.06;;;-148.95;40.37
38558;BME280;24333;42.626;23.308;2024-03-29T07:51:50;69746.84;;;-148.95;40.29
38558;BME280;24333;42.626;23.308;2024-03-29T07:54:16;69736.47;;;-148.95;40.12
38558;BME280;24333;42.626;23.308;2024-03-29T07:56:41;69711.59;;;-148.95;39.43
38558;BME280;24333;42.626;23.308;2024-03-29T07:59:07;69709.50;;;-148.95;39.24
38558;BME280;24333;42.626;23.308;2024-03-29T08:02:07;69684.63;;;-148.95;39.04
38558;BME280;24333;42.626;23.308;2024-03-29T08:04:33;69678.41;;;-148.95;38.12
38558;BME280;24333;42.626;23.308;2024-03-29T08:07:11;69659.72;;;-148.95;38.54
38558;BME280;24333;42.626;23.308;2024-03-29T08:09:53;69653.50;;;-148.95;38.82
38558;BME280;24333;42.626;23.308;2024-03-29T08:12:40;69632.78;;;-148.95;38.05
38558;BME280;24333;42.626;23.308;2024-03-29T08:15:06;69639.00;;;-148.95;38.11
38558;BME280;24333;42.626;23.308;2024-03-29T08:27:45;69589.22;;;-148.95;38.37
38558;BME280;24333;42.626;23.308;2024-03-29T08:31:11;69576.75;;;-148.95;37.21
38558;BME280;24333;42.626;23.308;2024-03-29T08:33:40;69562.25;;;-148.95;36.74
38558;BME280;24333;42.626;23.308;2024-03-29T08:36:19;69545.66;;;-148.95;36.59
38558;BME280;24333;42.626;23.308;2024-03-29T08:39:47;69535.28;;;-148.95;36.38
38558;BME280;24333;42.626;23.308;2024-03-29T08:45:54;69518.69;;;-148.95;36.08
38558;BME280;24333;42.626;23.308;2024-03-29T08:48:20;69522.84;;;-148.95;36.16
38558;BME280;24333;42.626;23.308;2024-03-29T08:50:50;69529.06;;;-148.95;35.62
38558;BME280;24333;42.626;23.308;2024-03-29T08:53:18;69512.47;;;-148.95;35.54
38558;BME280;24333;42.626;23.308;2024-03-29T08:55:46;69502.09;;;-148.95;35.79
38558;BME280;24333;42.626;23.308;2024-03-29T08:58:14;69493.78;;;-148.95;35.67
38558;BME280;24333;42.626;23.308;2024-03-29T09:04:15;69475.13;;;-148.95;34.61
38558;BME280;24333;42.626;23.308;2024-03-29T09:15:26;69429.50;;;-148.95;35.16
38558;BME280;24333;42.626;23.308;2024-03-29T09:17:52;69402.53;;;-148.95;34.79
38558;BME280;24333;42.626;23.308;2024-03-29T09:20:20;69388.00;;;-148.95;34.35
38558;BME280;24333;42.626;23.308;2024-03-29T09:22:46;69388.00;;;-148.95;35.18
38558;BME280;24333;42.626;23.308;2024-03-29T09:25:11;69396.31;;;-148.95;33.44
38558;BME280;24333;42.626;23.308;2024-03-29T09:27:40;69379.72;;;-148.95;33.81
38558;BME280;24333;42.626;23.308;2024-03-29T09:35:34;69338.22;;;-148.95;33.83
38558;BME280;24333;42.626;23.308;2024-03-29T09:38:00;69317.50;;;-148.95;33.61
38558;BME280;24333;42.626;23.308;2024-03-29T10:29:19;69197.19;;;-148.95;32.37
38558;BME280;24333;42.626;23.308;2024-03-29T10:31:46;69222.09;;;-148.95;32.58
38558;BME280;24333;42.626;23.308;2024-03-29T10:34:15;69197.19;;;-148.95;33.08
38558;BME280;24333;42.626;23.308;2024-03-29T10:36:41;69197.19;;;-148.95;32.28
38558;BME280;24333;42.626;23.308;2024-03-29T10:45:14;69134.97;;;-148.95;32.68
38558;BME280;24333;42.626;23.308;2024-03-29T10:47:43;69122.53;;;-148.95;31.14
38558;BME280;24333;42.626;23.308;2024-03-29T10:50:13;69095.56;;;-148.95;32.47
38558;BME280;24333;42.626;23.308;2024-03-29T10:52:42;69074.81;;;-148.95;32.10
38558;BME280;24333;42.626;23.308;2024-03-29T10:55:09;69037.50;;;-148.95;32.84
38558;BME280;24333;42.626;23.308;2024-03-29T10:57:41;68993.94;;;-148.95;31.60
38558;BME280;24333;42.626;23.308;2024-03-29T11:00:16;68985.66;;;-148.95;30.41
38558;BME280;24333;42.626;23.308;2024-03-29T11:02:49;68969.06;;;-148.95;30.22
38558;BME280;24333;42.626;23.308;2024-03-29T11:05:16;68975.28;;;-148.95;31.95
38558;BME280;24333;42.626;23.308;2024-03-29T11:07:43;68998.09;;;-148.95;31.47
38558;BME280;24333;42.626;23.308;2024-03-29T11:10:20;68985.66;;;-148.95;31.59
38558;BME280;24333;42.626;23.308;2024-03-29T11:21:30;68966.97;;;-148.95;30.77
38558;BME280;24333;42.626;23.308;2024-03-29T11:23:57;68944.16;;;-148.95;30.45
38558;BME280;24333;42.626;23.308;2024-03-29T11:26:34;68954.53;;;-148.95;29.79
38558;BME280;24333;42.626;23.308;2024-03-29T11:34:19;68906.84;;;-148.95;30.86
38558;BME280;24333;42.626;23.308;2024-03-29T11:36:45;68935.88;;;-148.95;30.20
38558;BME280;24333;42.626;23.308;2024-03-29T11:39:20;68867.44;;;-148.95;31.85
38558;BME280;24333;42.626;23.308;2024-03-29T11:41:47;68875.72;;;-148.95;30.45
38558;BME280;24333;42.626;23.308;2024-03-29T11:49:59;68948.31;;;-148.95;29.99
38558;BME280;24333;42.626;23.308;2024-03-29T11:52:26;68919.28;;;-148.95;29.79
38558;BME280;24333;42.626;23.308;2024-03-29T12:03:31;69022.97;;;-148.95;31.56
38558;BME280;24333;42.626;23.308;2024-03-29T12:05:59;69027.13;;;-148.95;31.77
38558;BME280;24333;42.626;23.308;2024-03-29T12:08:33;69033.34;;;-148.95;32.27
38558;BME280;24333;42.626;23.308;2024-03-29T12:11:22;69068.59;;;-148.95;32.22
38558;BME280;24333;42.626;23.308;2024-03-29T13:13:17;68786.56;;;-148.95;30.28
38558;BME280;24333;42.626;23.308;2024-03-29T13:15:43;68743.00;;;-148.95;29.81
38558;BME280;24333;42.626;23.308;2024-03-29T13:18:12;68695.31;;;-148.95;30.12
38558;BME280;24333;42.626;23.308;2024-03-29T13:20:39;68614.44;;;-148.95;29.30
38558;BME280;24333;42.626;23.308;2024-03-29T13:23:08;68595.78;;;-148.95;28.68
38558;BME280;24333;42.626;23.308;2024-03-29T13:25:33;68612.38;;;-148.95;28.44
38558;BME280;24333;42.626;23.308;2024-03-29T13:28:04;68631.03;;;-148.95;28.32
38558;BME280;24333;42.626;23.308;2024-03-29T13:30:30;68622.72;;;-148.95;28.69
38558;BME280;24333;42.626;23.308;2024-03-29T13:32:56;68575.03;;;-148.95;28.77
38558;BME280;24333;42.626;23.308;2024-03-29T13:35:22;68496.25;;;-148.95;29.48
38558;BME280;24333;42.626;23.308;2024-03-29T13:37:48;68516.97;;;-148.95;28.58
38558;BME280;24333;42.626;23.308;2024-03-29T13:40:15;68541.84;;;-148.95;29.01
38558;BME280;24333;42.626;23.308;2024-03-29T13:42:43;68450.63;;;-148.95;28.03
38558;BME280;24333;42.626;23.308;2024-03-29T13:45:09;68380.13;;;-148.95;26.43
38558;BME280;24333;42.626;23.308;2024-03-29T13:47:40;68270.22;;;-148.95;26.13
38558;BME280;24333;42.626;23.308;2024-03-29T13:50:07;68266.09;;;-148.95;26.31
38558;BME280;24333;42.626;23.308;2024-03-29T13:52:32;68232.91;;;-148.95;25.74
38558;BME280;24333;42.626;23.308;2024-03-29T13:54:59;68143.75;;;-148.95;25.41
38558;BME280;24333;42.626;23.308;2024-03-29T13:59:53;68098.13;;;-148.95;24.29
38558;BME280;24333;42.626;23.308;2024-03-29T14:02:19;68135.47;;;-148.95;24.75
38558;BME280;24333;42.626;23.308;2024-03-29T14:04:45;68278.53;;;-148.95;25.22
38558;BME280;24333;42.626;23.308;2024-03-29T14:07:13;68467.22;;;-148.95;26.03
38558;BME280;24333;42.626;23.308;2024-03-29T14:09:45;68606.16;;;-148.95;26.95
38558;BME280;24333;42.626;23.308;2024-03-29T14:12:12;68604.06;;;-148.95;26.50
38558;BME280;24333;42.626;23.308;2024-03-29T14:14:39;68537.72;;;-148.95;25.75
38558;BME280;24333;42.626;23.308;2024-03-29T14:17:05;68380.13;;;-148.95;24.95
38558;BME280;24333;42.626;23.308;2024-03-29T14:19:35;68297.19;;;-148.95;25.32
38558;BME280;24333;42.626;23.308;2024-03-29T14:22:02;68228.75;;;-148.95;25.44
38558;BME280;24333;42.626;23.308;2024-03-29T14:24:28;68249.50;;;-148.95;24.93
38558;BME280;24333;42.626;23.308;2024-03-29T14:26:56;68328.28;;;-148.95;25.03
38558;BME280;24333;42.626;23.308;2024-03-29T14:29:21;68299.25;;;-148.95;26.59
38558;BME280;24333;42.626;23.308;2024-03-29T14:31:50;68334.50;;;-148.95;27.40
38558;BME280;24333;42.626;23.308;2024-03-29T14:34:16;68419.53;;;-148.95;27.66
38558;BME280;24333;42.626;23.308;2024-03-29T14:36:42;68508.69;;;-148.95;28.67
38558;BME280;24333;42.626;23.308;2024-03-29T14:39:08;68554.31;;;-148.95;28.76
38558;BME280;24333;42.626;23.308;2024-03-29T14:41:35;68618.59;;;-148.95;28.67
38558;BME280;24333;42.626;23.308;2024-03-29T14:44:02;68678.72;;;-148.95;28.81
38558;BME280;24333;42.626;23.308;2024-03-29T14:46:28;68697.38;;;-148.95;29.95
38558;BME280;24333;42.626;23.308;2024-03-29T14:48:54;68757.53;;;-148.95;29.22
38558;BME280;24333;42.626;23.308;2024-03-29T14:51:38;68782.41;;;-148.95;29.69
38558;BME280;24333;42.626;23.308;2024-03-29T14:54:04;68767.91;;;-148.95;30.14
38558;BME280;24333;42.626;23.308;2024-03-29T14:59:51;68811.44;;;-148.95;29.74
38558;BME280;24333;42.626;23.308;2024-03-29T15:02:17;68803.16;;;-148.95;30.53
38558;BME280;24333;42.626;23.308;2024-03-29T15:04:43;68767.91;;;-148.95;30.02
38558;BME280;24333;42.626;23.308;2024-03-29T15:10:35;68730.56;;;-148.95;29.61
38558;BME280;24333;42.626;23.308;2024-03-29T15:13:00;68743.00;;;-148.95;29.59
38558;BME280;24333;42.626;23.308;2024-03-29T15:15:26;68740.94;;;-148.95;29.43
38558;BME280;24333;42.626;23.308;2024-03-29T15:17:51;68751.31;;;-148.95;30.69
38558;BME280;24333;42.626;23.308;2024-03-29T15:20:17;68759.59;;;-148.95;30.34
38558;BME280;24333;42.626;23.308;2024-03-29T15:22:43;68767.91;;;-148.95;30.18
38558;BME280;24333;42.626;23.308;2024-03-29T15:25:09;68782.41;;;-148.95;30.84
38558;BME280;24333;42.626;23.308;2024-03-29T15:27:35;68807.28;;;-148.95;30.51
38558;BME280;24333;42.626;23.308;2024-03-29T15:43:15;68956.63;;;-148.95;34.21
38558;BME280;24333;42.626;23.308;2024-03-29T15:45:41;68983.56;;;-148.95;34.88
38558;BME280;24333;42.626;23.308;2024-03-29T15:48:06;69029.19;;;-148.95;34.77
38558;BME280;24333;42.626;23.308;2024-03-29T15:50:32;69056.16;;;-148.95;35.44
38558;BME280;24333;42.626;23.308;2024-03-29T15:52:58;69091.41;;;-148.95;34.35
38558;BME280;24333;42.626;23.308;2024-03-29T15:55:24;69122.53;;;-148.95;34.96
38558;BME280;24333;42.626;23.308;2024-03-29T15:58:10;69151.56;;;-148.95;33.97
38558;BME280;24333;42.626;23.308;2024-03-29T16:00:36;69168.16;;;-148.95;32.87
38558;BME280;24333;42.626;23.308;2024-03-29T16:03:11;69180.59;;;-148.95;32.77
38558;BME280;24333;42.626;23.308;2024-03-29T16:05:40;69193.03;;;-148.95;32.96
38558;BME280;24333;42.626;23.308;2024-03-29T16:08:30;69205.50;;;-148.95;32.61
38558;BME280;24333;42.626;23.308;2024-03-29T16:11:42;69205.50;;;-148.95;32.58
38558;BME280;24333;42.626;23.308;2024-03-29T16:14:07;69211.72;;;-148.95;32.41
38558;BME280;24333;42.626;23.308;2024-03-29T16:16:33;69230.38;;;-148.95;32.06
38558;BME280;24333;42.626;23.308;2024-03-29T16:18:59;69222.09;;;-148.95;32.24
38558;BME280;24333;42.626;23.308;2024-03-29T16:21:24;69222.09;;;-148.95;32.30
38558;BME280;24333;42.626;23.308;2024-03-29T16:23:54;69230.38;;;-148.95;32.42
38558;BME280;24333;42.626;23.308;2024-03-29T16:26:19;69230.38;;;-148.95;32.34
38558;BME280;24333;42.626;23.308;2024-03-29T16:28:46;69238.69;;;-148.95;32.43
38558;BME280;24333;42.626;23.308;2024-03-29T16:31:13;69236.59;;;-148.95;32.43
38558;BME280;24333;42.626;23.308;2024-03-29T16:33:38;69242.81;;;-148.95;32.66
38558;BME280;24333;42.626;23.308;2024-03-29T16:36:05;69255.25;;;-148.95;32.66
38558;BME280;24333;42.626;23.308;2024-03-29T16:38:31;69263.56;;;-148.95;33.21
38558;BME280;24333;42.626;23.308;2024-03-29T16:41:18;69271.84;;;-148.95;33.18
38558;BME280;24333;42.626;23.308;2024-03-29T16:43:44;69278.09;;;-148.95;33.21
38558;BME280;24333;42.626;23.308;2024-03-29T16:46:10;69292.59;;;-148.95;33.67
38558;BME280;24333;42.626;23.308;2024-03-29T16:48:36;69307.13;;;-148.95;34.65
38558;BME280;24333;42.626;23.308;2024-03-29T16:57:47;69361.03;;;-148.95;35.77
38558;BME280;24333;42.626;23.308;2024-03-29T17:00:12;69365.19;;;-148.95;36.14
38558;BME280;24333;42.626;23.308;2024-03-29T17:02:40;69385.94;;;-148.95;36.14
38558;BME280;24333;42.626;23.308;2024-03-29T17:05:06;69394.22;;;-148.95;35.33
38558;BME280;24333;42.626;23.308;2024-03-29T17:07:33;69394.22;;;-148.95;35.11
38558;BME280;24333;42.626;23.308;2024-03-29T17:10:05;69400.44;;;-148.95;35.67
38558;BME280;24333;42.626;23.308;2024-03-29T17:12:30;69414.97;;;-148.95;35.56
38558;BME280;24333;42.626;23.308;2024-03-29T17:14:56;69423.28;;;-148.95;35.90
38558;BME280;24333;42.626;23.308;2024-03-29T17:17:23;69421.19;;;-148.95;36.53
38558;BME280;24333;42.626;23.308;2024-03-29T17:19:49;69431.56;;;-148.95;36.17
38558;BME280;24333;42.626;23.308;2024-03-29T17:22:14;69446.09;;;-148.95;36.86
38558;BME280;24333;42.626;23.308;2024-03-29T17:24:40;69450.22;;;-148.95;37.78
38558;BME280;24333;42.626;23.308;2024-03-29T17:27:05;69468.91;;;-148.95;38.56
38558;BME280;24333;42.626;23.308;2024-03-29T17:29:31;69487.56;;;-148.95;38.81
38558;BME280;24333;42.626;23.308;2024-03-29T17:31:56;69512.47;;;-148.95;38.08
38558;BME280;24333;42.626;23.308;2024-03-29T17:34:22;69516.59;;;-148.95;38.27
38558;BME280;24333;42.626;23.308;2024-03-29T17:36:48;69531.13;;;-148.95;38.59
38558;BME280;24333;42.626;23.308;2024-03-29T17:39:13;69533.19;;;-148.95;39.63
38558;BME280;24333;42.626;23.308;2024-03-29T17:41:39;69535.28;;;-148.95;38.62
38558;BME280;24333;42.626;23.308;2024-03-29T17:44:05;69526.97;;;-148.95;36.65
38558;BME280;24333;42.626;23.308;2024-03-29T17:46:31;69504.16;;;-148.95;35.53
38558;BME280;24333;42.626;23.308;2024-03-29T17:48:57;69473.06;;;-148.95;35.67
38558;BME280;24333;42.626;23.308;2024-03-29T17:51:22;69452.31;;;-148.95;35.27
38558;BME280;24333;42.626;23.308;2024-03-29T17:54:06;69431.56;;;-148.95;35.54
38558;BME280;24333;42.626;23.308;2024-03-29T17:56:54;69427.41;;;-148.95;35.69
38558;BME280;24333;42.626;23.308;2024-03-29T17:59:19;69419.13;;;-148.95;35.31
38558;BME280;24333;42.626;23.308;2024-03-29T18:01:45;69417.03;;;-148.95;35.02
38558;BME280;24333;42.626;23.308;2024-03-29T18:04:11;69417.03;;;-148.95;34.48